Time;durP1;ratioP1;P1;durP2;ratioP2;P2;SDS_P1;SDS_P2;PMS_P1;PMS_P2;Temp;Humidity;BMP_temperature;BMP_pressure;BME280_temperature;BME280_humidity;BME280_pressure;Samples;Min_cycle;Max_cycle;Signal;HPM_P1;HPM_P2
2021/06/03 00:00:55;;;;;;;4.15;2.10;;;20.60;78.60;;;;;;5016820;28;20018;-91
2021/06/03 00:03:22;;;;;;;3.35;2.03;;;20.50;78.90;;;;;;5016386;28;20044;-91
2021/06/03 00:05:50;;;;;;;3.50;2.20;;;20.50;79.30;;;;;;5016724;28;20068;-91
2021/06/03 00:08:17;;;;;;;3.25;2.22;;;20.50;79.50;;;;;;5018760;28;20117;-89
2021/06/03 00:10:50;;;;;;;4.57;2.70;;;20.50;79.80;;;;;;5001747;28;20018;-92
2021/06/03 00:13:16;;;;;;;3.67;2.45;;;20.40;80.10;;;;;;5008769;28;20440;-92
2021/06/03 00:15:42;;;;;;;5.68;2.60;;;20.30;80.30;;;;;;4997452;28;20463;-91
2021/06/03 00:18:08;;;;;;;4.18;2.63;;;20.30;80.90;;;;;;4997192;28;20037;-91
2021/06/03 00:20:34;;;;;;;5.00;2.88;;;20.20;81.40;;;;;;4999032;28;20021;-92
2021/06/03 00:23:00;;;;;;;3.45;2.83;;;20.20;81.70;;;;;;5016946;28;20505;-90
2021/06/03 00:25:27;;;;;;;4.60;3.28;;;20.10;81.90;;;;;;5033780;28;20029;-91
2021/06/03 00:27:53;;;;;;;4.05;2.95;;;20.10;82.20;;;;;;5016406;28;20029;-92
2021/06/03 00:30:19;;;;;;;4.00;2.72;;;20.10;82.40;;;;;;5000184;28;20078;-91
2021/06/03 00:32:45;;;;;;;4.53;2.92;;;20.00;82.80;;;;;;5014284;28;20097;-91
2021/06/03 00:35:11;;;;;;;4.40;2.58;;;19.90;83.30;;;;;;5004093;28;20099;-90
2021/06/03 00:37:38;;;;;;;3.17;2.58;;;19.80;83.90;;;;;;5016249;28;20041;-91
2021/06/03 00:40:07;;;;;;;3.38;2.35;;;19.80;84.30;;;;;;5016333;28;20056;-91
2021/06/03 00:42:33;;;;;;;4.07;2.28;;;19.70;85.00;;;;;;5018487;28;20029;-91
2021/06/03 00:44:58;;;;;;;4.47;2.22;;;19.70;85.50;;;;;;5020107;28;20075;-90
2021/06/03 00:47:24;;;;;;;3.72;2.20;;;19.70;85.60;;;;;;5019754;28;20562;-92
2021/06/03 00:49:50;;;;;;;6.70;2.40;;;19.70;85.60;;;;;;5019697;28;20120;-91
2021/06/03 00:52:16;;;;;;;3.10;2.28;;;19.80;86.00;;;;;;5019882;28;20024;-92
2021/06/03 00:54:41;;;;;;;6.78;2.30;;;19.80;86.50;;;;;;5019676;28;20116;-93
2021/06/03 00:57:07;;;;;;;4.05;2.20;;;19.80;87.30;;;;;;5019202;28;20025;-90
2021/06/03 00:59:33;;;;;;;4.22;2.00;;;19.80;87.40;;;;;;5019540;28;20063;-90
2021/06/03 01:02:00;;;;;;;3.30;2.10;;;19.90;87.50;;;;;;5019861;28;20037;-91
2021/06/03 01:04:25;;;;;;;2.50;1.80;;;19.80;88.10;;;;;;5035124;28;20104;-91
2021/06/03 01:06:51;;;;;;;5.30;2.38;;;19.90;88.20;;;;;;4999653;28;20506;-90
2021/06/03 01:09:29;;;;;;;4.50;2.75;;;19.80;88.80;;;;;;4999953;28;20497;-91
2021/06/03 01:12:06;;;;;;;3.50;2.28;;;19.80;89.10;;;;;;5030567;28;20026;-91
2021/06/03 01:14:40;;;;;;;3.97;2.10;;;19.90;89.50;;;;;;5019686;28;20041;-91
2021/06/03 01:17:07;;;;;;;3.58;2.20;;;19.90;89.80;;;;;;5037571;28;20026;-91
2021/06/03 01:19:38;;;;;;;2.90;1.80;;;19.90;89.70;;;;;;5019368;28;20038;-91
2021/06/03 01:22:26;;;;;;;2.45;1.50;;;19.80;90.10;;;;;;5005139;28;20112;-91
2021/06/03 01:24:57;;;;;;;3.58;2.17;;;19.80;90.00;;;;;;4999674;28;20056;-91
2021/06/03 01:27:26;;;;;;;3.85;1.70;;;19.80;90.30;;;;;;4999264;28;20026;-91
2021/06/03 01:29:58;;;;;;;4.05;2.08;;;19.70;90.50;;;;;;5012084;28;20034;-91
2021/06/03 01:32:28;;;;;;;3.70;1.83;;;19.70;90.70;;;;;;5036700;28;20076;-91
2021/06/03 01:34:55;;;;;;;3.72;2.13;;;19.70;90.80;;;;;;5018737;28;20033;-90
2021/06/03 01:37:21;;;;;;;3.47;1.70;;;19.70;91.00;;;;;;5018813;28;20046;-89
2021/06/03 01:39:48;;;;;;;2.67;1.50;;;19.70;91.00;;;;;;5006698;28;20033;-90
2021/06/03 01:42:16;;;;;;;2.58;1.60;;;19.70;91.00;;;;;;5014838;28;20029;-90
2021/06/03 01:44:42;;;;;;;4.03;1.80;;;19.70;91.20;;;;;;5019042;28;20021;-92
2021/06/03 01:47:10;;;;;;;1.85;1.20;;;19.70;91.10;;;;;;5012040;28;20018;-90
2021/06/03 01:49:37;;;;;;;1.80;1.35;;;19.70;91.20;;;;;;4998905;28;20084;-90
2021/06/03 01:52:05;;;;;;;2.15;1.50;;;19.60;91.40;;;;;;5013171;28;20083;-89
2021/06/03 01:54:31;;;;;;;1.92;1.50;;;19.60;91.40;;;;;;5035598;28;20056;-90
2021/06/03 01:56:58;;;;;;;1.92;1.27;;;19.60;91.50;;;;;;5035947;28;20018;-90
2021/06/03 01:59:24;;;;;;;2.65;1.45;;;19.60;91.60;;;;;;5018871;28;20018;-90
2021/06/03 02:01:50;;;;;;;1.60;1.20;;;19.50;91.60;;;;;;5018750;28;20033;-90
2021/06/03 02:04:16;;;;;;;1.80;1.58;;;19.50;91.70;;;;;;5002299;28;20021;-89
2021/06/03 02:06:43;;;;;;;1.88;1.33;;;19.50;91.80;;;;;;5018018;28;20187;-90
2021/06/03 02:09:10;;;;;;;3.05;1.40;;;19.50;91.80;;;;;;5018390;28;20041;-91
2021/06/03 02:11:42;;;;;;;2.88;1.30;;;19.40;92.00;;;;;;5007328;28;20045;-90
2021/06/03 02:14:09;;;;;;;2.85;1.67;;;19.30;92.20;;;;;;5013410;28;20025;-90
2021/06/03 02:16:49;;;;;;;2.38;1.70;;;19.20;92.40;;;;;;5018092;28;20013;-90
2021/06/03 02:19:18;;;;;;;2.22;1.60;;;19.10;92.80;;;;;;5018197;28;20541;-90
2021/06/03 02:21:47;;;;;;;2.55;1.65;;;19.00;92.70;;;;;;5018291;28;20018;-89
2021/06/03 02:24:13;;;;;;;2.72;1.67;;;19.00;92.90;;;;;;5002546;28;20030;-90
2021/06/03 02:26:41;;;;;;;3.40;1.67;;;18.90;93.10;;;;;;5001214;28;20943;-91
2021/06/03 02:29:08;;;;;;;3.38;1.52;;;18.90;93.30;;;;;;5017764;28;20120;-89
2021/06/03 02:31:34;;;;;;;2.97;1.67;;;18.80;93.50;;;;;;5017810;28;20032;-90
2021/06/03 02:34:00;;;;;;;3.25;1.58;;;18.80;93.70;;;;;;5017619;28;20387;-91
2021/06/03 02:36:29;;;;;;;3.22;1.63;;;18.70;93.90;;;;;;5007195;28;20030;-90
2021/06/03 02:38:55;;;;;;;3.33;1.70;;;18.70;94.10;;;;;;5007325;28;20170;-89
2021/06/03 02:41:22;;;;;;;2.65;1.67;;;18.70;94.20;;;;;;5007725;28;20029;-89
2021/06/03 02:43:49;;;;;;;2.33;1.75;;;18.70;94.30;;;;;;5018808;28;20021;-89
2021/06/03 02:46:17;;;;;;;3.60;1.60;;;18.70;94.40;;;;;;5004401;28;20032;-90
2021/06/03 02:48:43;;;;;;;2.97;1.90;;;18.60;94.50;;;;;;5016804;28;20040;-89
2021/06/03 02:51:10;;;;;;;4.55;2.47;;;18.60;94.90;;;;;;5005599;28;20018;-88
2021/06/03 02:53:36;;;;;;;2.72;1.70;;;18.50;94.80;;;;;;5007233;28;20024;-91
2021/06/03 02:56:02;;;;;;;2.35;1.60;;;18.50;95.00;;;;;;5011721;28;20026;-91
2021/06/03 02:58:28;;;;;;;2.75;1.75;;;18.50;95.20;;;;;;5000768;28;20026;-92
2021/06/03 03:00:54;;;;;;;3.08;2.13;;;18.50;95.30;;;;;;5017228;28;20028;-91
2021/06/03 03:03:20;;;;;;;3.85;1.80;;;18.40;95.40;;;;;;5008896;28;20018;-91
2021/06/03 03:05:46;;;;;;;2.95;1.67;;;18.40;95.50;;;;;;4996990;28;20018;-90
2021/06/03 03:08:12;;;;;;;4.15;2.15;;;18.50;95.60;;;;;;5012635;28;20148;-91
2021/06/03 03:10:41;;;;;;;2.65;1.60;;;18.50;95.70;;;;;;4998210;28;20491;-90
2021/06/03 03:13:07;;;;;;;1.92;1.42;;;18.50;95.80;;;;;;5014948;28;20033;-91
2021/06/03 03:15:34;;;;;;;2.95;1.70;;;18.50;95.90;;;;;;4997545;28;20231;-91
2021/06/03 03:18:00;;;;;;;2.95;1.80;;;18.50;96.00;;;;;;5011077;28;20024;-91
2021/06/03 03:20:27;;;;;;;2.85;1.58;;;18.50;96.10;;;;;;5034364;28;20382;-90
2021/06/03 03:22:54;;;;;;;3.00;1.88;;;18.50;96.20;;;;;;5017021;28;20017;-92
2021/06/03 03:25:21;;;;;;;2.53;1.83;;;18.40;96.30;;;;;;5016974;28;20078;-90
2021/06/03 03:27:49;;;;;;;4.15;1.67;;;18.40;96.50;;;;;;5005195;28;20034;-90
2021/06/03 03:30:17;;;;;;;3.60;1.80;;;18.40;96.60;;;;;;5012755;28;20059;-91
2021/06/03 03:32:43;;;;;;;3.38;1.90;;;18.30;96.70;;;;;;5000570;28;20013;-91
2021/06/03 03:35:11;;;;;;;3.78;2.10;;;18.30;96.80;;;;;;5009941;28;20018;-91
2021/06/03 03:37:41;;;;;;;2.53;1.65;;;18.30;96.90;;;;;;4996986;28;20049;-91
2021/06/03 03:40:10;;;;;;;3.35;2.22;;;18.30;97.00;;;;;;5029524;28;20021;-92
2021/06/03 03:42:36;;;;;;;2.88;1.85;;;18.30;97.10;;;;;;4997708;28;20022;-92
2021/06/03 03:45:03;;;;;;;2.85;1.90;;;18.30;97.10;;;;;;5002780;28;20091;-91
2021/06/03 03:47:29;;;;;;;3.38;1.83;;;18.30;97.20;;;;;;5024242;28;20356;-90
2021/06/03 03:49:54;;;;;;;3.47;2.10;;;18.30;97.30;;;;;;5009539;28;20092;-92
2021/06/03 03:52:20;;;;;;;3.00;1.85;;;18.30;97.50;;;;;;5016848;28;20442;-90
2021/06/03 03:54:46;;;;;;;2.75;1.98;;;18.30;97.80;;;;;;5016677;28;20030;-90
2021/06/03 03:57:12;;;;;;;2.95;2.15;;;18.20;97.70;;;;;;4993010;28;20025;-91
2021/06/03 03:59:38;;;;;;;2.25;1.73;;;18.20;97.80;;;;;;4997070;28;20018;-90
2021/06/03 04:02:05;;;;;;;3.35;2.00;;;18.20;98.00;;;;;;5028185;28;20041;-91
2021/06/03 04:04:31;;;;;;;3.47;2.20;;;18.20;98.10;;;;;;5014651;28;20017;-91
2021/06/03 04:06:57;;;;;;;2.83;2.03;;;18.20;98.20;;;;;;5019732;28;20505;-90
2021/06/03 04:09:23;;;;;;;2.80;2.05;;;18.10;98.30;;;;;;5007216;28;20030;-91
2021/06/03 04:11:49;;;;;;;3.30;2.05;;;18.10;98.40;;;;;;4997133;28;20076;-91
2021/06/03 04:14:14;;;;;;;2.85;2.08;;;18.10;98.60;;;;;;5012118;28;20022;-90
2021/06/03 04:16:40;;;;;;;3.65;2.15;;;18.10;98.70;;;;;;5014973;28;20425;-91
2021/06/03 04:19:06;;;;;;;2.75;1.95;;;18.00;98.80;;;;;;5000544;28;20088;-91
2021/06/03 04:21:32;;;;;;;3.35;2.00;;;18.10;98.90;;;;;;5010270;28;20108;-91
2021/06/03 04:23:57;;;;;;;3.30;2.10;;;18.10;99.00;;;;;;5019980;28;20429;-91
2021/06/03 04:26:23;;;;;;;2.65;2.03;;;18.10;99.10;;;;;;5003536;28;20029;-91
2021/06/03 04:28:51;;;;;;;3.45;1.95;;;18.10;99.20;;;;;;5020036;28;20033;-91
2021/06/03 04:31:17;;;;;;;3.03;2.25;;;18.10;99.30;;;;;;5011875;28;20022;-90
2021/06/03 04:33:43;;;;;;;3.20;2.17;;;18.10;99.30;;;;;;5028808;28;20032;-91
2021/06/03 04:36:09;;;;;;;3.17;2.33;;;18.20;99.40;;;;;;5004711;28;20030;-91
2021/06/03 04:38:35;;;;;;;2.88;2.20;;;18.40;99.40;;;;;;5018614;28;20406;-90
2021/06/03 04:41:00;;;;;;;2.85;1.95;;;18.40;99.40;;;;;;5013932;28;20125;-91
2021/06/03 04:43:27;;;;;;;3.33;2.25;;;18.50;99.40;;;;;;5009064;28;20033;-92
2021/06/03 04:45:53;;;;;;;3.30;2.30;;;18.60;99.40;;;;;;5006619;28;20037;-91
2021/06/03 04:48:19;;;;;;;3.75;2.17;;;18.70;99.40;;;;;;5033438;28;20033;-92
2021/06/03 04:50:46;;;;;;;4.45;2.30;;;18.80;99.40;;;;;;5002742;28;20144;-90
2021/06/03 04:53:13;;;;;;;5.18;2.83;;;18.80;99.50;;;;;;5011370;28;20022;-91
2021/06/03 04:55:39;;;;;;;4.32;2.30;;;18.90;99.50;;;;;;5008855;28;20088;-90
2021/06/03 04:58:06;;;;;;;3.40;2.50;;;18.90;99.50;;;;;;5004627;28;20014;-92
2021/06/03 05:00:34;;;;;;;3.58;2.40;;;19.00;99.50;;;;;;5016157;28;20029;-92
2021/06/03 05:03:01;;;;;;;4.50;2.42;;;19.10;99.60;;;;;;5023282;28;20021;-94
2021/06/03 05:05:27;;;;;;;5.50;2.50;;;19.10;99.60;;;;;;5028907;28;20033;-92
2021/06/03 05:07:54;;;;;;;3.50;2.40;;;19.20;99.70;;;;;;5018253;28;20038;-93
2021/06/03 05:10:21;;;;;;;3.40;2.38;;;19.20;99.70;;;;;;4999874;28;20756;-92
2021/06/03 05:12:47;;;;;;;3.35;2.50;;;19.20;99.80;;;;;;5000903;28;20041;-93
2021/06/03 05:15:14;;;;;;;3.85;2.60;;;19.30;99.90;;;;;;5030564;28;20081;-91
2021/06/03 05:17:40;;;;;;;4.22;2.65;;;19.30;99.90;;;;;;5030983;28;20028;-91
2021/06/03 05:20:10;;;;;;;4.10;2.50;;;19.30;99.90;;;;;;5029986;28;20018;-91
2021/06/03 05:22:36;;;;;;;4.03;2.85;;;19.40;99.90;;;;;;5024989;28;20395;-91
2021/06/03 05:25:07;;;;;;;3.45;2.47;;;19.40;99.90;;;;;;5026250;28;20450;-92
2021/06/03 05:27:33;;;;;;;4.70;2.88;;;19.30;99.90;;;;;;5002754;28;20038;-93
2021/06/03 05:29:59;;;;;;;3.50;2.60;;;19.30;99.90;;;;;;5001154;28;20044;-94
2021/06/03 05:32:25;;;;;;;5.13;2.72;;;19.30;99.90;;;;;;5022214;28;20022;-92
2021/06/03 05:34:51;;;;;;;5.40;3.03;;;19.30;99.90;;;;;;5019762;28;20029;-93
2021/06/03 05:37:16;;;;;;;4.15;2.90;;;19.20;99.90;;;;;;5011570;28;20120;-91
2021/06/03 05:39:42;;;;;;;3.53;2.65;;;19.30;99.90;;;;;;5000842;28;20079;-92
2021/06/03 05:42:08;;;;;;;3.92;2.70;;;19.30;99.90;;;;;;4999828;28;20072;-91
2021/06/03 05:44:34;;;;;;;4.07;2.90;;;19.30;99.90;;;;;;5017241;28;20495;-90
2021/06/03 05:47:00;;;;;;;4.97;2.92;;;19.30;99.90;;;;;;5000570;28;20029;-91
2021/06/03 05:49:27;;;;;;;4.25;3.13;;;19.30;99.90;;;;;;5001929;28;20037;-93
2021/06/03 05:51:54;;;;;;;5.82;3.33;;;19.30;99.90;;;;;;5029093;28;20029;-92
2021/06/03 05:54:20;;;;;;;5.13;3.60;;;19.30;99.90;;;;;;5041115;28;20054;-92
2021/06/03 05:56:47;;;;;;;6.97;4.10;;;19.30;99.90;;;;;;5035023;28;20037;-91
2021/06/03 05:59:13;;;;;;;5.30;3.60;;;19.30;99.90;;;;;;5011972;28;20026;-89
2021/06/03 06:01:38;;;;;;;4.18;3.40;;;19.40;99.90;;;;;;5002978;28;20020;-91
2021/06/03 06:06:31;;;;;;;4.55;3.22;;;19.50;99.90;;;;;;5032915;28;20414;-92
2021/06/03 06:09:00;;;;;;;4.38;3.42;;;19.50;99.90;;;;;;5016097;28;20092;-90
2021/06/03 06:11:30;;;;;;;5.28;3.95;;;19.50;99.90;;;;;;4998818;28;20030;-93
2021/06/03 06:13:56;;;;;;;6.90;3.90;;;19.60;99.90;;;;;;5000020;28;20025;-92
2021/06/03 06:16:22;;;;;;;6.13;4.10;;;19.60;99.90;;;;;;5001467;28;20026;-91
2021/06/03 06:18:48;;;;;;;10.25;4.93;;;19.80;99.90;;;;;;5023123;28;20032;-92
2021/06/03 06:21:16;;;;;;;5.93;4.28;;;19.90;99.90;;;;;;5023827;28;20021;-88
2021/06/03 06:23:44;;;;;;;6.93;4.78;;;20.00;99.90;;;;;;5018070;28;20022;-88
2021/06/03 06:26:10;;;;;;;6.80;6.00;;;20.10;99.90;;;;;;5020198;28;20160;-91
2021/06/03 06:28:37;;;;;;;5.82;4.78;;;20.30;99.90;;;;;;5014290;28;20177;-93
2021/06/03 06:31:04;;;;;;;5.53;4.03;;;20.40;99.90;;;;;;5021061;28;20014;-91
2021/06/03 06:33:30;;;;;;;7.50;5.95;;;20.50;99.90;;;;;;5008351;28;20026;-90
2021/06/03 06:35:56;;;;;;;5.43;4.35;;;20.50;99.90;;;;;;4999992;28;20541;-90
2021/06/03 06:38:23;;;;;;;6.68;5.50;;;20.60;99.90;;;;;;5032984;28;20053;-86
2021/06/03 06:40:50;;;;;;;7.63;6.50;;;20.60;99.90;;;;;;5018447;28;20028;-87
2021/06/03 06:43:17;;;;;;;8.80;7.30;;;20.70;99.90;;;;;;5008743;28;20044;-83
2021/06/03 06:45:43;;;;;;;7.80;6.32;;;20.80;99.90;;;;;;5022199;28;20026;-85
2021/06/03 06:48:10;;;;;;;7.72;6.00;;;20.90;99.90;;;;;;5016028;28;20105;-88
2021/06/03 06:50:37;;;;;;;7.68;6.03;;;20.90;99.90;;;;;;5026797;28;20025;-86
2021/06/03 06:53:04;;;;;;;8.70;7.03;;;20.90;99.90;;;;;;5016958;28;20430;-86
2021/06/03 06:55:30;;;;;;;9.90;7.28;;;20.90;99.90;;;;;;5019654;28;20026;-87
2021/06/03 06:57:56;;;;;;;9.35;7.53;;;21.00;99.90;;;;;;5006845;28;20071;-87
2021/06/03 07:00:24;;;;;;;7.35;6.53;;;21.00;99.90;;;;;;5013114;28;20075;-87
2021/06/03 07:02:50;;;;;;;8.63;5.88;;;21.10;99.90;;;;;;4998163;28;20025;-87
2021/06/03 07:05:16;;;;;;;8.50;6.00;;;21.20;99.90;;;;;;5022492;28;20030;-86
2021/06/03 07:07:42;;;;;;;7.25;5.68;;;21.30;99.90;;;;;;5004243;28;20075;-86
2021/06/03 07:10:10;;;;;;;7.22;5.40;;;21.40;99.90;;;;;;4998409;28;20066;-86
2021/06/03 07:12:36;;;;;;;7.95;5.35;;;21.60;99.90;;;;;;5028338;28;20053;-89
2021/06/03 07:15:05;;;;;;;6.57;5.25;;;21.70;99.90;;;;;;5019513;28;20041;-90
2021/06/03 07:17:30;;;;;;;7.93;6.18;;;21.70;99.90;;;;;;5023887;28;20029;-90
2021/06/03 07:19:56;;;;;;;8.55;6.03;;;21.80;99.90;;;;;;5034392;28;20748;-88
2021/06/03 07:22:22;;;;;;;6.28;5.63;;;21.80;99.90;;;;;;5025263;28;20547;-89
2021/06/03 07:24:47;;;;;;;6.47;5.10;;;21.80;99.90;;;;;;5038952;28;20022;-91
2021/06/03 07:27:13;;;;;;;6.82;5.90;;;21.90;99.90;;;;;;5015684;28;20072;-90
2021/06/03 07:29:41;;;;;;;7.45;5.85;;;21.90;99.90;;;;;;5011754;28;20025;-89
2021/06/03 07:32:07;;;;;;;9.52;6.90;;;22.00;99.90;;;;;;5013307;28;20029;-90
2021/06/03 07:34:33;;;;;;;7.68;4.88;;;22.00;99.90;;;;;;5010640;28;20032;-90
2021/06/03 07:36:59;;;;;;;9.02;5.95;;;22.00;99.90;;;;;;5012179;28;20084;-87
2021/06/03 07:39:25;;;;;;;9.43;7.07;;;22.00;99.90;;;;;;5012743;28;20032;-90
2021/06/03 07:41:51;;;;;;;10.77;7.68;;;22.00;99.90;;;;;;5013417;28;20051;-86
2021/06/03 07:44:17;;;;;;;9.30;6.82;;;22.10;99.90;;;;;;5021781;28;20065;-85
2021/06/03 07:46:44;;;;;;;7.20;5.85;;;22.10;99.90;;;;;;5024209;28;20080;-86
2021/06/03 07:49:13;;;;;;;7.22;5.40;;;22.20;99.90;;;;;;5030319;28;20038;-90
2021/06/03 07:51:40;;;;;;;6.70;5.97;;;22.30;99.90;;;;;;5030677;28;20025;-88
2021/06/03 07:54:07;;;;;;;8.35;6.97;;;22.40;99.90;;;;;;4999139;28;20022;-88
2021/06/03 07:56:33;;;;;;;11.40;7.03;;;22.40;99.90;;;;;;5012452;28;20109;-87
2021/06/03 07:58:58;;;;;;;6.75;5.43;;;22.50;99.90;;;;;;5027153;28;20468;-87
2021/06/03 08:01:24;;;;;;;6.80;5.10;;;22.60;99.90;;;;;;5024429;28;20032;-88
2021/06/03 08:03:50;;;;;;;5.88;5.03;;;22.80;99.90;;;;;;5041338;28;20429;-89
2021/06/03 08:06:16;;;;;;;6.38;5.35;;;23.00;99.90;;;;;;5032326;28;20036;-88
2021/06/03 08:08:42;;;;;;;6.18;4.68;;;23.20;99.90;;;;;;4998354;28;20050;-88
2021/06/03 08:11:08;;;;;;;7.50;5.80;;;23.40;99.90;;;;;;5007700;28;20487;-88
2021/06/03 08:13:35;;;;;;;8.50;5.47;;;23.60;99.90;;;;;;5005433;28;20036;-89
2021/06/03 08:16:01;;;;;;;8.35;6.20;;;23.80;99.90;;;;;;5019800;28;20096;-89
2021/06/03 08:18:27;;;;;;;11.02;5.75;;;24.10;99.50;;;;;;5012797;28;20370;-90
2021/06/03 08:20:57;;;;;;;7.97;5.68;;;24.20;99.10;;;;;;4996307;28;20024;-88
2021/06/03 08:23:24;;;;;;;7.10;6.40;;;24.40;99.00;;;;;;5022136;28;20112;-86
2021/06/03 08:25:50;;;;;;;7.60;5.63;;;24.30;98.50;;;;;;5005632;28;20101;-86
2021/06/03 08:28:16;;;;;;;7.22;4.70;;;24.20;98.70;;;;;;5010812;28;20026;-85
2021/06/03 08:30:43;;;;;;;4.45;3.92;;;24.30;98.60;;;;;;5000083;28;20053;-86
2021/06/03 08:33:09;;;;;;;6.20;4.60;;;24.40;98.70;;;;;;5009297;28;20069;-88
2021/06/03 08:35:35;;;;;;;6.10;5.15;;;24.40;98.60;;;;;;5006118;28;20033;-89
2021/06/03 08:38:08;;;;;;;5.40;4.43;;;24.50;98.60;;;;;;5019250;28;20072;-88
2021/06/03 08:40:44;;;;;;;9.70;5.63;;;24.70;98.50;;;;;;5012228;28;20037;-87
2021/06/03 08:43:10;;;;;;;7.68;5.03;;;24.80;97.90;;;;;;4999063;28;20022;-86
2021/06/03 08:45:38;;;;;;;6.45;5.10;;;24.90;97.20;;;;;;5031072;28;20041;-87
2021/06/03 08:48:04;;;;;;;6.72;4.57;;;24.90;97.30;;;;;;5023576;28;20048;-84
2021/06/03 08:50:35;;;;;;;5.05;4.13;;;24.90;97.30;;;;;;4997295;28;20033;-89
2021/06/03 08:53:01;;;;;;;6.65;5.43;;;25.00;97.30;;;;;;5008707;28;20048;-86
2021/06/03 08:58:16;;;;;;;7.45;4.95;;;25.10;96.80;;;;;;5027802;28;20040;-88
2021/06/03 09:00:44;;;;;;;5.95;4.70;;;25.10;96.70;;;;;;5017089;28;20088;-89
2021/06/03 09:03:10;;;;;;;7.20;4.80;;;25.30;96.70;;;;;;4999336;28;20083;-88
2021/06/03 09:05:38;;;;;;;6.78;4.85;;;25.30;96.50;;;;;;5030567;28;20025;-91
2021/06/03 09:08:31;;;;;;;4.85;4.20;;;25.40;96.30;;;;;;5035820;28;20033;-88
2021/06/03 09:11:07;;;;;;;5.93;4.53;;;25.50;96.30;;;;;;5015946;28;20057;-90
2021/06/03 09:13:41;;;;;;;8.52;5.32;;;25.60;96.40;;;;;;5017933;28;20049;-89
2021/06/03 09:16:09;;;;;;;6.32;4.45;;;25.60;96.00;;;;;;5020182;28;20033;-91
2021/06/03 09:18:41;;;;;;;8.18;4.32;;;25.60;95.80;;;;;;5030867;28;20080;-88
2021/06/03 09:21:13;;;;;;;5.75;4.22;;;25.60;95.90;;;;;;5025847;28;20048;-89
2021/06/03 09:23:41;;;;;;;7.88;6.38;;;25.60;95.90;;;;;;5028626;28;20124;-89
2021/06/03 09:26:18;;;;;;;7.43;5.68;;;25.60;95.10;;;;;;5034453;28;20029;-88
2021/06/03 09:28:45;;;;;;;8.65;5.35;;;25.50;95.50;;;;;;5034933;28;20053;-90
2021/06/03 09:31:33;;;;;;;5.53;4.22;;;25.70;95.90;;;;;;5027016;28;20032;-91
2021/06/03 09:34:17;;;;;;;5.22;4.00;;;26.80;95.70;;;;;;5023306;28;20024;-92
2021/06/03 09:36:50;;;;;;;7.05;4.55;;;28.10;94.90;;;;;;5021540;28;20056;-90
2021/06/03 09:39:32;;;;;;;5.35;4.05;;;28.80;93.70;;;;;;5031613;28;20076;-90
2021/06/03 09:42:15;;;;;;;6.00;4.20;;;29.10;93.50;;;;;;5038678;28;20037;-93
2021/06/03 09:44:40;;;;;;;7.05;4.43;;;29.40;92.90;;;;;;5039108;28;20116;-92
2021/06/03 09:47:07;;;;;;;5.05;4.22;;;29.30;92.00;;;;;;5043203;28;20013;-91
2021/06/03 09:49:40;;;;;;;5.85;4.60;;;29.10;92.40;;;;;;5028260;28;20046;-91
2021/06/03 09:52:18;;;;;;;4.95;3.50;;;28.90;92.00;;;;;;5035088;28;20048;-94
2021/06/03 09:54:53;;;;;;;5.10;3.58;;;28.70;92.40;;;;;;5007799;28;20026;-90
2021/06/03 09:57:20;;;;;;;5.60;3.90;;;28.30;92.80;;;;;;5032319;28;20014;-92
2021/06/03 09:59:56;;;;;;;5.07;3.22;;;27.90;92.90;;;;;;5031898;28;20013;-89
2021/06/03 10:02:21;;;;;;;4.90;3.70;;;27.50;93.20;;;;;;5024006;28;20078;-93
2021/06/03 10:04:49;;;;;;;5.15;3.67;;;27.10;93.60;;;;;;5036485;28;20032;-91
2021/06/03 10:07:26;;;;;;;5.53;3.70;;;27.00;93.90;;;;;;5020859;28;20014;-92
2021/06/03 10:10:09;;;;;;;5.82;4.03;;;26.90;94.20;;;;;;5034389;28;20014;-91
2021/06/03 10:12:44;;;;;;;6.75;4.60;;;26.90;94.00;;;;;;5025367;28;20068;-92
2021/06/03 10:15:31;;;;;;;7.35;4.28;;;26.80;93.90;;;;;;5034218;28;20082;-92
2021/06/03 10:18:02;;;;;;;5.57;3.80;;;26.80;94.10;;;;;;5035441;28;20002;-92
2021/06/03 10:20:46;;;;;;;5.15;3.65;;;27.10;94.20;;;;;;5024278;28;20029;-92
2021/06/03 10:23:19;;;;;;;4.93;3.80;;;27.50;93.80;;;;;;5031954;28;20093;-92
2021/06/03 10:25:46;;;;;;;4.55;3.70;;;27.80;93.50;;;;;;5032911;28;20085;-92
2021/06/03 10:28:19;;;;;;;7.75;4.18;;;28.00;93.30;;;;;;5035743;28;20037;-92
2021/06/03 10:30:49;;;;;;;5.80;4.50;;;27.80;93.20;;;;;;5034332;28;20028;-93
2021/06/03 10:33:32;;;;;;;5.53;4.03;;;27.50;93.30;;;;;;5024611;28;20014;-92
2021/06/03 10:36:03;;;;;;;5.88;4.47;;;27.30;93.80;;;;;;5024495;28;20121;-92
2021/06/03 10:38:28;;;;;;;7.75;4.28;;;27.10;94.30;;;;;;5032787;28;20068;-92
2021/06/03 10:40:56;;;;;;;7.28;5.07;;;26.90;94.40;;;;;;5018850;28;20029;-92
2021/06/03 10:43:23;;;;;;;6.72;4.95;;;26.80;94.50;;;;;;5027388;28;20010;-91
2021/06/03 10:45:49;;;;;;;4.47;3.80;;;26.90;94.60;;;;;;5025049;28;20024;-92
2021/06/03 10:48:15;;;;;;;6.35;4.15;;;27.10;94.60;;;;;;5018051;28;20078;-92
2021/06/03 10:50:49;;;;;;;6.05;4.57;;;27.10;94.60;;;;;;5030875;28;20025;-91
2021/06/03 10:53:17;;;;;;;5.68;4.05;;;27.30;94.60;;;;;;5026545;28;20093;-91
2021/06/03 10:56:06;;;;;;;7.05;4.70;;;27.20;94.60;;;;;;5022663;28;20025;-93
2021/06/03 10:58:37;;;;;;;6.13;4.55;;;27.10;95.10;;;;;;5018033;28;20029;-91
2021/06/03 11:01:37;;;;;;;6.13;4.63;;;26.70;95.60;;;;;;5023328;28;20039;-93
2021/06/03 11:04:09;;;;;;;8.10;5.75;;;26.10;97.10;;;;;;5029724;28;20022;-92
2021/06/03 11:06:45;;;;;;;7.95;5.60;;;25.50;98.00;;;;;;5017827;28;20034;-92
2021/06/03 11:09:11;;;;;;;8.93;5.35;;;25.20;98.80;;;;;;5024801;28;20048;-92
2021/06/03 11:11:40;;;;;;;5.32;4.82;;;25.00;99.60;;;;;;5028903;28;20002;-91
2021/06/03 11:14:21;;;;;;;8.65;5.82;;;25.00;99.80;;;;;;5035071;28;20037;-92
2021/06/03 11:16:54;;;;;;;8.00;5.93;;;25.10;99.90;;;;;;5015268;28;20021;-92
2021/06/03 11:19:27;;;;;;;6.97;5.20;;;25.20;99.90;;;;;;5034872;28;20072;-93
2021/06/03 11:21:56;;;;;;;7.10;5.25;;;25.90;99.80;;;;;;5021114;28;20048;-93
2021/06/03 11:24:24;;;;;;;6.38;5.70;;;26.90;99.30;;;;;;5012892;28;20057;-93
2021/06/03 11:26:58;;;;;;;6.15;5.18;;;27.10;98.80;;;;;;5022047;28;20022;-92
2021/06/03 11:29:29;;;;;;;6.97;5.70;;;26.90;98.80;;;;;;5023485;28;20045;-95
2021/06/03 11:32:02;;;;;;;6.75;5.03;;;26.80;99.00;;;;;;5023358;28;20034;-93
2021/06/03 11:34:45;;;;;;;8.75;6.07;;;26.80;99.30;;;;;;5031436;28;20045;-93
2021/06/03 11:37:17;;;;;;;7.95;5.38;;;26.70;99.20;;;;;;5022823;28;20036;-93
2021/06/03 11:39:52;;;;;;;6.00;4.70;;;26.90;98.80;;;;;;5023092;28;20046;-93
2021/06/03 11:42:29;;;;;;;6.18;4.68;;;27.20;98.60;;;;;;5029610;28;20035;-93
2021/06/03 11:45:29;;;;;;;7.38;4.32;;;27.30;98.10;;;;;;5020326;28;20022;-90
2021/06/03 11:47:59;;;;;;;6.43;4.00;;;27.30;98.20;;;;;;5035897;28;20045;-91
2021/06/03 11:50:24;;;;;;;4.45;3.60;;;27.40;98.00;;;;;;5032618;28;20024;-92
2021/06/03 11:52:58;;;;;;;5.00;3.50;;;28.10;97.90;;;;;;5015662;28;20026;-93
2021/06/03 11:55:35;;;;;;;5.65;3.83;;;28.80;96.70;;;;;;5024110;28;20051;-94
2021/06/03 11:58:25;;;;;;;7.15;4.10;;;29.20;95.60;;;;;;5034677;28;20042;-94
2021/06/03 12:00:57;;;;;;;7.97;4.00;;;29.00;94.60;;;;;;5018483;28;20010;-91
2021/06/03 12:03:43;;;;;;;6.20;4.43;;;28.90;94.90;;;;;;5032510;28;20025;-93
2021/06/03 12:06:14;;;;;;;4.38;3.65;;;29.10;95.00;;;;;;5034190;28;20037;-94
2021/06/03 12:08:44;;;;;;;6.90;4.38;;;29.40;95.30;;;;;;5013338;28;20042;-91
2021/06/03 12:11:14;;;;;;;7.80;4.57;;;30.10;94.00;;;;;;5021379;28;20036;-90
2021/06/03 12:14:08;;;;;;;6.38;4.10;;;30.30;93.50;;;;;;5033012;28;20017;-93
2021/06/03 12:16:43;;;;;;;5.63;3.22;;;30.60;93.00;;;;;;5031646;28;20029;-93
2021/06/03 12:19:21;;;;;;;4.78;3.35;;;31.00;92.10;;;;;;5025960;28;20037;-92
2021/06/03 12:21:55;;;;;;;5.07;3.70;;;31.20;92.00;;;;;;5030060;28;20029;-94
2021/06/03 12:24:44;;;;;;;4.30;2.88;;;30.90;90.90;;;;;;5011355;28;20057;-88
2021/06/03 12:27:28;;;;;;;4.32;2.58;;;30.40;91.10;;;;;;5015831;28;20064;-89
2021/06/03 12:29:57;;;;;;;5.07;2.50;;;30.60;90.60;;;;;;5012347;28;20125;-88
2021/06/03 12:32:23;;;;;;;3.83;2.20;;;30.90;90.70;;;;;;5000273;28;20352;-88
2021/06/03 12:34:49;;;;;;;4.78;2.72;;;31.20;90.50;;;;;;5012770;28;20033;-87
2021/06/03 12:37:21;;;;;;;5.90;2.92;;;31.60;89.80;;;;;;5004154;28;20028;-89
2021/06/03 12:39:46;;;;;;;4.03;2.40;;;31.70;88.00;;;;;;5008616;28;20033;-88
2021/06/03 12:42:12;;;;;;;3.92;2.25;;;32.20;87.80;;;;;;5034136;28;20045;-88
2021/06/03 12:44:37;;;;;;;5.50;2.42;;;32.80;87.00;;;;;;5021328;28;20073;-88
2021/06/03 12:47:07;;;;;;;5.10;2.53;;;33.10;85.50;;;;;;5014305;28;20100;-89
2021/06/03 12:49:34;;;;;;;3.63;2.60;;;32.90;84.60;;;;;;5016241;28;20391;-89
2021/06/03 12:52:06;;;;;;;3.15;2.58;;;32.30;86.50;;;;;;5019896;28;20032;-89
2021/06/03 12:54:35;;;;;;;4.63;2.97;;;31.70;86.50;;;;;;5019409;28;20049;-89
2021/06/03 12:57:05;;;;;;;4.82;2.90;;;31.10;87.70;;;;;;5031540;28;20010;-88
2021/06/03 12:59:34;;;;;;;3.90;2.70;;;30.90;88.50;;;;;;5008635;28;20017;-88